Weather at Asaba International Airport

Public forecast

Using degrees Celsius for public forecast. Weather courtesy of forecast.io.

Closest aviation weather report (METAR) to Asaba International Airport

Report is more than 2 hours old.

Closest report is Akanu Ibiam International Airport, 55.9 nm (103.5 km) ENE. Retrieved 2020/09/24 22:00 UTC (4 hours ago):

DNEN 242200Z 00000KT 9999 FEW010 26/24 Q1015 NOSIG

Closest aviation forecast (TAF) to Asaba International Airport

Closest forecast is Akanu Ibiam International Airport, 55.9 nm (103.5 km) ENE. Retrieved 2020-09-25 00:21 UTC (2 hours ago):

TAF DNEN 242300Z 2500/2606 VRB02KT 9999 BKN009 TEMPO 2504/2507 5000 BR SCT008 BECMG 2508/2510 27011KT SCT011